sensor_id;sensor_type;location;lat;lon;timestamp;P1;durP1;ratioP1;P2;durP2;ratioP2
48161;SDS011;33950;48.154;16.316;2023-04-25T00:01:35;4.15;;;2.05;;
48161;SDS011;33950;48.154;16.316;2023-04-25T00:04:22;4.53;;;1.52;;
48161;SDS011;33950;48.154;16.316;2023-04-25T00:07:08;2.63;;;1.80;;
48161;SDS011;33950;48.154;16.316;2023-04-25T00:09:55;5.93;;;1.70;;
48161;SDS011;33950;48.154;16.316;2023-04-25T00:12:43;4.28;;;1.75;;
48161;SDS011;33950;48.154;16.316;2023-04-25T00:15:29;3.40;;;2.08;;
48161;SDS011;33950;48.154;16.316;2023-04-25T00:18:16;3.92;;;1.83;;
48161;SDS011;33950;48.154;16.316;2023-04-25T00:21:03;3.38;;;1.80;;
48161;SDS011;33950;48.154;16.316;2023-04-25T00:23:52;8.15;;;1.77;;
48161;SDS011;33950;48.154;16.316;2023-04-25T00:26:38;3.20;;;1.40;;
48161;SDS011;33950;48.154;16.316;2023-04-25T00:29:26;4.57;;;1.67;;
48161;SDS011;33950;48.154;16.316;2023-04-25T00:32:12;6.85;;;2.40;;
48161;SDS011;33950;48.154;16.316;2023-04-25T00:34:58;4.65;;;1.85;;
48161;SDS011;33950;48.154;16.316;2023-04-25T00:37:44;4.93;;;2.00;;
48161;SDS011;33950;48.154;16.316;2023-04-25T00:43:01;4.25;;;2.00;;
48161;SDS011;33950;48.154;16.316;2023-04-25T00:45:48;5.07;;;2.10;;
48161;SDS011;33950;48.154;16.316;2023-04-25T00:48:37;8.10;;;2.30;;
48161;SDS011;33950;48.154;16.316;2023-04-25T00:51:23;6.00;;;2.25;;
48161;SDS011;33950;48.154;16.316;2023-04-25T00:54:10;3.00;;;1.75;;
48161;SDS011;33950;48.154;16.316;2023-04-25T00:56:57;3.45;;;1.73;;
48161;SDS011;33950;48.154;16.316;2023-04-25T00:59:46;2.80;;;2.10;;
48161;SDS011;33950;48.154;16.316;2023-04-25T01:02:34;3.78;;;2.08;;
48161;SDS011;33950;48.154;16.316;2023-04-25T01:05:21;8.73;;;2.20;;
48161;SDS011;33950;48.154;16.316;2023-04-25T01:08:08;5.68;;;2.00;;
48161;SDS011;33950;48.154;16.316;2023-04-25T01:10:54;5.22;;;2.13;;
48161;SDS011;33950;48.154;16.316;2023-04-25T01:13:40;8.75;;;2.42;;
48161;SDS011;33950;48.154;16.316;2023-04-25T01:16:26;6.47;;;2.08;;
48161;SDS011;33950;48.154;16.316;2023-04-25T01:19:16;3.97;;;2.17;;
48161;SDS011;33950;48.154;16.316;2023-04-25T01:22:05;7.03;;;1.98;;
48161;SDS011;33950;48.154;16.316;2023-04-25T01:24:51;4.68;;;1.90;;
48161;SDS011;33950;48.154;16.316;2023-04-25T01:27:38;3.05;;;2.20;;
48161;SDS011;33950;48.154;16.316;2023-04-25T01:30:25;5.88;;;2.72;;
48161;SDS011;33950;48.154;16.316;2023-04-25T01:33:12;4.13;;;1.55;;
48161;SDS011;33950;48.154;16.316;2023-04-25T01:36:00;10.23;;;2.53;;
48161;SDS011;33950;48.154;16.316;2023-04-25T01:38:48;7.00;;;2.00;;
48161;SDS011;33950;48.154;16.316;2023-04-25T01:41:35;2.17;;;1.77;;
48161;SDS011;33950;48.154;16.316;2023-04-25T01:44:21;5.00;;;2.10;;
48161;SDS011;33950;48.154;16.316;2023-04-25T01:47:08;3.42;;;2.05;;
48161;SDS011;33950;48.154;16.316;2023-04-25T01:49:54;4.25;;;2.55;;
48161;SDS011;33950;48.154;16.316;2023-04-25T01:52:40;3.40;;;2.17;;
48161;SDS011;33950;48.154;16.316;2023-04-25T01:55:27;2.90;;;1.88;;
48161;SDS011;33950;48.154;16.316;2023-04-25T01:58:14;6.20;;;2.10;;
48161;SDS011;33950;48.154;16.316;2023-04-25T02:01:00;10.13;;;2.25;;
48161;SDS011;33950;48.154;16.316;2023-04-25T02:03:46;4.50;;;2.10;;
48161;SDS011;33950;48.154;16.316;2023-04-25T02:06:32;4.75;;;2.20;;
48161;SDS011;33950;48.154;16.316;2023-04-25T02:09:18;4.63;;;2.50;;
48161;SDS011;33950;48.154;16.316;2023-04-25T02:12:07;6.18;;;2.25;;
48161;SDS011;33950;48.154;16.316;2023-04-25T02:14:53;5.55;;;2.50;;
48161;SDS011;33950;48.154;16.316;2023-04-25T02:17:40;4.75;;;2.42;;
48161;SDS011;33950;48.154;16.316;2023-04-25T02:20:26;5.88;;;2.63;;
48161;SDS011;33950;48.154;16.316;2023-04-25T02:23:13;4.68;;;2.60;;
48161;SDS011;33950;48.154;16.316;2023-04-25T02:26:00;5.38;;;2.33;;
48161;SDS011;33950;48.154;16.316;2023-04-25T02:28:48;5.38;;;2.15;;
48161;SDS011;33950;48.154;16.316;2023-04-25T02:31:34;9.05;;;3.17;;
48161;SDS011;33950;48.154;16.316;2023-04-25T02:34:20;6.55;;;2.53;;
48161;SDS011;33950;48.154;16.316;2023-04-25T02:37:06;4.88;;;2.83;;
48161;SDS011;33950;48.154;16.316;2023-04-25T02:39:52;4.60;;;2.88;;
48161;SDS011;33950;48.154;16.316;2023-04-25T02:42:38;16.45;;;3.20;;
48161;SDS011;33950;48.154;16.316;2023-04-25T02:45:26;5.05;;;2.80;;
48161;SDS011;33950;48.154;16.316;2023-04-25T02:48:12;5.40;;;2.83;;
48161;SDS011;33950;48.154;16.316;2023-04-25T02:50:58;6.05;;;2.15;;
48161;SDS011;33950;48.154;16.316;2023-04-25T02:53:44;5.95;;;2.85;;
48161;SDS011;33950;48.154;16.316;2023-04-25T02:56:30;9.20;;;2.75;;
48161;SDS011;33950;48.154;16.316;2023-04-25T02:59:16;5.10;;;2.75;;
48161;SDS011;33950;48.154;16.316;2023-04-25T03:02:04;4.60;;;2.58;;
48161;SDS011;33950;48.154;16.316;2023-04-25T03:04:50;4.43;;;2.67;;
48161;SDS011;33950;48.154;16.316;2023-04-25T03:07:36;5.53;;;2.95;;
48161;SDS011;33950;48.154;16.316;2023-04-25T03:10:24;5.57;;;2.30;;
48161;SDS011;33950;48.154;16.316;2023-04-25T03:13:10;8.70;;;2.72;;
48161;SDS011;33950;48.154;16.316;2023-04-25T03:15:57;3.80;;;2.58;;
48161;SDS011;33950;48.154;16.316;2023-04-25T03:18:44;4.40;;;2.75;;
48161;SDS011;33950;48.154;16.316;2023-04-25T03:21:30;7.35;;;3.30;;
48161;SDS011;33950;48.154;16.316;2023-04-25T03:24:17;6.47;;;2.53;;
48161;SDS011;33950;48.154;16.316;2023-04-25T03:27:03;4.07;;;2.70;;
48161;SDS011;33950;48.154;16.316;2023-04-25T03:29:49;3.42;;;2.53;;
48161;SDS011;33950;48.154;16.316;2023-04-25T03:32:35;8.77;;;3.13;;
48161;SDS011;33950;48.154;16.316;2023-04-25T03:35:23;7.53;;;3.13;;
48161;SDS011;33950;48.154;16.316;2023-04-25T03:38:09;6.30;;;2.40;;
48161;SDS011;33950;48.154;16.316;2023-04-25T03:40:55;6.55;;;3.33;;
48161;SDS011;33950;48.154;16.316;2023-04-25T03:43:41;4.30;;;2.50;;
48161;SDS011;33950;48.154;16.316;2023-04-25T03:46:27;5.93;;;2.58;;
48161;SDS011;33950;48.154;16.316;2023-04-25T03:49:13;9.20;;;2.88;;
48161;SDS011;33950;48.154;16.316;2023-04-25T03:52:01;7.13;;;2.38;;
48161;SDS011;33950;48.154;16.316;2023-04-25T03:54:47;5.57;;;3.03;;
48161;SDS011;33950;48.154;16.316;2023-04-25T03:57:33;3.42;;;2.42;;
48161;SDS011;33950;48.154;16.316;2023-04-25T04:00:20;3.30;;;2.50;;
48161;SDS011;33950;48.154;16.316;2023-04-25T04:03:06;4.80;;;2.40;;
48161;SDS011;33950;48.154;16.316;2023-04-25T04:05:52;4.70;;;2.97;;
48161;SDS011;33950;48.154;16.316;2023-04-25T04:08:39;4.97;;;2.75;;
48161;SDS011;33950;48.154;16.316;2023-04-25T04:11:26;4.53;;;2.83;;
48161;SDS011;33950;48.154;16.316;2023-04-25T04:14:12;6.47;;;2.78;;
48161;SDS011;33950;48.154;16.316;2023-04-25T04:16:58;4.95;;;2.67;;
48161;SDS011;33950;48.154;16.316;2023-04-25T04:19:44;5.25;;;2.75;;
48161;SDS011;33950;48.154;16.316;2023-04-25T04:22:30;7.50;;;2.80;;
48161;SDS011;33950;48.154;16.316;2023-04-25T04:25:18;5.45;;;2.58;;
48161;SDS011;33950;48.154;16.316;2023-04-25T04:28:04;5.68;;;2.90;;
48161;SDS011;33950;48.154;16.316;2023-04-25T04:30:51;3.40;;;2.35;;
48161;SDS011;33950;48.154;16.316;2023-04-25T04:33:37;7.22;;;2.50;;
48161;SDS011;33950;48.154;16.316;2023-04-25T04:36:23;4.60;;;2.45;;
48161;SDS011;33950;48.154;16.316;2023-04-25T04:39:11;7.97;;;3.15;;
48161;SDS011;33950;48.154;16.316;2023-04-25T04:41:59;6.47;;;2.60;;
48161;SDS011;33950;48.154;16.316;2023-04-25T04:44:47;4.43;;;2.55;;
48161;SDS011;33950;48.154;16.316;2023-04-25T04:47:33;8.15;;;2.83;;
48161;SDS011;33950;48.154;16.316;2023-04-25T04:50:19;8.18;;;3.20;;
48161;SDS011;33950;48.154;16.316;2023-04-25T04:53:05;7.53;;;2.92;;
48161;SDS011;33950;48.154;16.316;2023-04-25T04:55:51;5.00;;;2.97;;
48161;SDS011;33950;48.154;16.316;2023-04-25T04:58:39;11.43;;;2.97;;
48161;SDS011;33950;48.154;16.316;2023-04-25T05:01:25;8.77;;;3.65;;
48161;SDS011;33950;48.154;16.316;2023-04-25T05:04:11;4.68;;;3.10;;
48161;SDS011;33950;48.154;16.316;2023-04-25T05:06:58;5.05;;;2.90;;
48161;SDS011;33950;48.154;16.316;2023-04-25T05:09:44;8.65;;;3.38;;
48161;SDS011;33950;48.154;16.316;2023-04-25T05:12:30;5.72;;;2.85;;
48161;SDS011;33950;48.154;16.316;2023-04-25T05:15:18;7.57;;;3.58;;
48161;SDS011;33950;48.154;16.316;2023-04-25T05:18:04;5.38;;;2.97;;
48161;SDS011;33950;48.154;16.316;2023-04-25T05:20:50;4.70;;;3.03;;
48161;SDS011;33950;48.154;16.316;2023-04-25T05:23:36;3.42;;;2.80;;
48161;SDS011;33950;48.154;16.316;2023-04-25T05:26:22;6.03;;;2.92;;
48161;SDS011;33950;48.154;16.316;2023-04-25T05:29:09;8.07;;;3.15;;
48161;SDS011;33950;48.154;16.316;2023-04-25T05:31:56;5.55;;;3.35;;
48161;SDS011;33950;48.154;16.316;2023-04-25T05:34:42;15.63;;;3.50;;
48161;SDS011;33950;48.154;16.316;2023-04-25T05:37:29;11.00;;;3.40;;
48161;SDS011;33950;48.154;16.316;2023-04-25T05:40:16;12.63;;;3.75;;
48161;SDS011;33950;48.154;16.316;2023-04-25T05:43:02;7.00;;;3.28;;
48161;SDS011;33950;48.154;16.316;2023-04-25T05:45:48;5.32;;;3.03;;
48161;SDS011;33950;48.154;16.316;2023-04-25T05:48:36;3.63;;;2.72;;
48161;SDS011;33950;48.154;16.316;2023-04-25T05:51:22;4.28;;;2.90;;
48161;SDS011;33950;48.154;16.316;2023-04-25T05:54:08;12.18;;;3.20;;
48161;SDS011;33950;48.154;16.316;2023-04-25T05:56:55;4.18;;;2.97;;
48161;SDS011;33950;48.154;16.316;2023-04-25T05:59:42;3.85;;;2.72;;
48161;SDS011;33950;48.154;16.316;2023-04-25T06:02:28;4.75;;;2.85;;
48161;SDS011;33950;48.154;16.316;2023-04-25T06:05:15;7.65;;;2.88;;
48161;SDS011;33950;48.154;16.316;2023-04-25T06:08:02;8.73;;;2.35;;
48161;SDS011;33950;48.154;16.316;2023-04-25T06:10:48;3.78;;;2.63;;
48161;SDS011;33950;48.154;16.316;2023-04-25T06:13:34;6.82;;;2.72;;
48161;SDS011;33950;48.154;16.316;2023-04-25T06:16:20;7.32;;;3.53;;
48161;SDS011;33950;48.154;16.316;2023-04-25T06:19:09;9.73;;;2.33;;
48161;SDS011;33950;48.154;16.316;2023-04-25T06:21:56;3.83;;;2.50;;
48161;SDS011;33950;48.154;16.316;2023-04-25T06:24:42;5.30;;;2.53;;
48161;SDS011;33950;48.154;16.316;2023-04-25T06:27:31;4.82;;;2.78;;
48161;SDS011;33950;48.154;16.316;2023-04-25T06:30:17;5.00;;;1.90;;
48161;SDS011;33950;48.154;16.316;2023-04-25T06:33:07;5.82;;;2.90;;
48161;SDS011;33950;48.154;16.316;2023-04-25T06:35:54;6.63;;;2.40;;
48161;SDS011;33950;48.154;16.316;2023-04-25T06:38:41;3.75;;;2.38;;
48161;SDS011;33950;48.154;16.316;2023-04-25T06:41:27;4.13;;;2.80;;
48161;SDS011;33950;48.154;16.316;2023-04-25T06:44:13;9.70;;;3.08;;
48161;SDS011;33950;48.154;16.316;2023-04-25T06:47:00;4.72;;;2.58;;
48161;SDS011;33950;48.154;16.316;2023-04-25T06:49:46;4.75;;;2.78;;
48161;SDS011;33950;48.154;16.316;2023-04-25T06:52:32;4.07;;;2.50;;
48161;SDS011;33950;48.154;16.316;2023-04-25T06:55:20;6.05;;;2.75;;
48161;SDS011;33950;48.154;16.316;2023-04-25T06:58:06;6.30;;;2.95;;
48161;SDS011;33950;48.154;16.316;2023-04-25T07:00:52;5.55;;;3.22;;
48161;SDS011;33950;48.154;16.316;2023-04-25T07:03:38;11.18;;;3.08;;
48161;SDS011;33950;48.154;16.316;2023-04-25T07:06:24;6.85;;;2.38;;
48161;SDS011;33950;48.154;16.316;2023-04-25T07:09:12;5.13;;;2.67;;
48161;SDS011;33950;48.154;16.316;2023-04-25T07:11:59;4.93;;;2.78;;
48161;SDS011;33950;48.154;16.316;2023-04-25T07:14:46;3.72;;;2.75;;
48161;SDS011;33950;48.154;16.316;2023-04-25T07:17:32;3.72;;;2.78;;
48161;SDS011;33950;48.154;16.316;2023-04-25T07:20:19;8.40;;;3.20;;
48161;SDS011;33950;48.154;16.316;2023-04-25T07:23:05;13.30;;;3.42;;
48161;SDS011;33950;48.154;16.316;2023-04-25T07:25:51;5.03;;;2.63;;
48161;SDS011;33950;48.154;16.316;2023-04-25T07:28:39;6.55;;;2.60;;
48161;SDS011;33950;48.154;16.316;2023-04-25T07:31:25;7.18;;;3.03;;
48161;SDS011;33950;48.154;16.316;2023-04-25T07:34:12;8.00;;;3.35;;
48161;SDS011;33950;48.154;16.316;2023-04-25T07:36:58;8.10;;;4.15;;
48161;SDS011;33950;48.154;16.316;2023-04-25T07:39:44;11.07;;;4.80;;
48161;SDS011;33950;48.154;16.316;2023-04-25T07:42:32;3.55;;;2.72;;
48161;SDS011;33950;48.154;16.316;2023-04-25T07:45:19;4.15;;;2.92;;
48161;SDS011;33950;48.154;16.316;2023-04-25T07:48:05;6.10;;;3.05;;
48161;SDS011;33950;48.154;16.316;2023-04-25T07:50:51;5.95;;;2.95;;
48161;SDS011;33950;48.154;16.316;2023-04-25T07:53:37;5.45;;;2.67;;
48161;SDS011;33950;48.154;16.316;2023-04-25T07:56:24;5.85;;;3.72;;
48161;SDS011;33950;48.154;16.316;2023-04-25T07:59:10;6.78;;;3.50;;
48161;SDS011;33950;48.154;16.316;2023-04-25T08:01:57;22.25;;;10.13;;
48161;SDS011;33950;48.154;16.316;2023-04-25T08:04:43;9.85;;;3.38;;
48161;SDS011;33950;48.154;16.316;2023-04-25T08:07:29;6.32;;;2.75;;
48161;SDS011;33950;48.154;16.316;2023-04-25T08:10:18;7.10;;;3.65;;
48161;SDS011;33950;48.154;16.316;2023-04-25T08:13:05;8.55;;;3.40;;
48161;SDS011;33950;48.154;16.316;2023-04-25T08:15:52;10.43;;;4.32;;
48161;SDS011;33950;48.154;16.316;2023-04-25T08:18:39;6.50;;;2.92;;
48161;SDS011;33950;48.154;16.316;2023-04-25T08:21:25;3.78;;;2.42;;
48161;SDS011;33950;48.154;16.316;2023-04-25T08:24:13;8.85;;;2.83;;
48161;SDS011;33950;48.154;16.316;2023-04-25T08:26:59;8.70;;;2.92;;
48161;SDS011;33950;48.154;16.316;2023-04-25T08:29:45;3.85;;;2.40;;
48161;SDS011;33950;48.154;16.316;2023-04-25T08:32:31;6.47;;;2.70;;
48161;SDS011;33950;48.154;16.316;2023-04-25T08:35:18;5.75;;;2.63;;
48161;SDS011;33950;48.154;16.316;2023-04-25T08:38:05;3.72;;;2.83;;
48161;SDS011;33950;48.154;16.316;2023-04-25T08:40:52;5.22;;;2.55;;
48161;SDS011;33950;48.154;16.316;2023-04-25T08:43:41;3.67;;;2.38;;
48161;SDS011;33950;48.154;16.316;2023-04-25T08:46:29;10.85;;;2.60;;
48161;SDS011;33950;48.154;16.316;2023-04-25T08:49:19;3.83;;;2.30;;
48161;SDS011;33950;48.154;16.316;2023-04-25T08:52:06;4.43;;;2.30;;
48161;SDS011;33950;48.154;16.316;2023-04-25T08:54:56;6.03;;;2.58;;
48161;SDS011;33950;48.154;16.316;2023-04-25T08:57:43;4.68;;;2.42;;
48161;SDS011;33950;48.154;16.316;2023-04-25T09:00:30;4.25;;;2.40;;
48161;SDS011;33950;48.154;16.316;2023-04-25T09:03:16;5.55;;;2.67;;
48161;SDS011;33950;48.154;16.316;2023-04-25T09:06:03;3.13;;;2.50;;
48161;SDS011;33950;48.154;16.316;2023-04-25T09:08:51;3.53;;;2.35;;
48161;SDS011;33950;48.154;16.316;2023-04-25T09:11:37;3.88;;;2.40;;
48161;SDS011;33950;48.154;16.316;2023-04-25T09:14:23;4.40;;;2.60;;
48161;SDS011;33950;48.154;16.316;2023-04-25T09:17:11;5.88;;;2.25;;
48161;SDS011;33950;48.154;16.316;2023-04-25T09:20:04;5.53;;;2.28;;
48161;SDS011;33950;48.154;16.316;2023-04-25T09:23:02;4.18;;;2.38;;
48161;SDS011;33950;48.154;16.316;2023-04-25T09:25:51;4.97;;;2.03;;
48161;SDS011;33950;48.154;16.316;2023-04-25T09:28:39;13.27;;;2.65;;
48161;SDS011;33950;48.154;16.316;2023-04-25T09:31:25;4.63;;;2.20;;
48161;SDS011;33950;48.154;16.316;2023-04-25T09:34:11;3.88;;;2.70;;
48161;SDS011;33950;48.154;16.316;2023-04-25T09:37:01;15.75;;;5.45;;
48161;SDS011;33950;48.154;16.316;2023-04-25T09:39:47;6.78;;;3.40;;
48161;SDS011;33950;48.154;16.316;2023-04-25T09:42:40;6.68;;;3.30;;
48161;SDS011;33950;48.154;16.316;2023-04-25T09:45:29;8.55;;;3.97;;
48161;SDS011;33950;48.154;16.316;2023-04-25T09:48:16;11.70;;;3.47;;
48161;SDS011;33950;48.154;16.316;2023-04-25T09:51:04;6.70;;;4.20;;
48161;SDS011;33950;48.154;16.316;2023-04-25T09:53:51;9.88;;;4.38;;
48161;SDS011;33950;48.154;16.316;2023-04-25T09:56:37;11.32;;;5.30;;
48161;SDS011;33950;48.154;16.316;2023-04-25T09:59:25;7.72;;;5.05;;
48161;SDS011;33950;48.154;16.316;2023-04-25T10:02:13;6.65;;;3.55;;
48161;SDS011;33950;48.154;16.316;2023-04-25T10:05:00;7.85;;;3.00;;
48161;SDS011;33950;48.154;16.316;2023-04-25T10:07:51;1.88;;;1.30;;
48161;SDS011;33950;48.154;16.316;2023-04-25T10:10:38;2.17;;;1.33;;
48161;SDS011;33950;48.154;16.316;2023-04-25T10:13:26;5.38;;;3.03;;
48161;SDS011;33950;48.154;16.316;2023-04-25T10:16:15;4.60;;;1.80;;
48161;SDS011;33950;48.154;16.316;2023-04-25T10:19:02;3.55;;;1.50;;
48161;SDS011;33950;48.154;16.316;2023-04-25T10:21:49;4.32;;;2.00;;
48161;SDS011;33950;48.154;16.316;2023-04-25T10:24:37;8.70;;;1.17;;
48161;SDS011;33950;48.154;16.316;2023-04-25T10:27:26;5.35;;;1.02;;
48161;SDS011;33950;48.154;16.316;2023-04-25T10:30:13;0.95;;;0.30;;
48161;SDS011;33950;48.154;16.316;2023-04-25T10:33:01;3.00;;;0.50;;
48161;SDS011;33950;48.154;16.316;2023-04-25T10:38:55;0.60;;;0.38;;
48161;SDS011;33950;48.154;16.316;2023-04-25T10:41:46;2.50;;;0.93;;
48161;SDS011;33950;48.154;16.316;2023-04-25T10:44:33;1.20;;;0.60;;
48161;SDS011;33950;48.154;16.316;2023-04-25T10:47:23;2.03;;;0.80;;
48161;SDS011;33950;48.154;16.316;2023-04-25T10:50:21;2.90;;;1.20;;
48161;SDS011;33950;48.154;16.316;2023-04-25T10:53:24;0.80;;;0.40;;
48161;SDS011;33950;48.154;16.316;2023-04-25T10:56:10;6.05;;;0.93;;
48161;SDS011;33950;48.154;16.316;2023-04-25T10:59:02;3.00;;;1.00;;
48161;SDS011;33950;48.154;16.316;2023-04-25T11:01:51;1.67;;;1.20;;
48161;SDS011;33950;48.154;16.316;2023-04-25T11:04:40;1.17;;;0.93;;
48161;SDS011;33950;48.154;16.316;2023-04-25T11:07:32;1.35;;;0.90;;
48161;SDS011;33950;48.154;16.316;2023-04-25T11:10:24;7.00;;;1.52;;
48161;SDS011;33950;48.154;16.316;2023-04-25T11:13:10;4.97;;;2.22;;
48161;SDS011;33950;48.154;16.316;2023-04-25T11:15:57;8.52;;;2.33;;
48161;SDS011;33950;48.154;16.316;2023-04-25T11:18:43;3.38;;;2.20;;
48161;SDS011;33950;48.154;16.316;2023-04-25T11:21:29;4.05;;;2.35;;
48161;SDS011;33950;48.154;16.316;2023-04-25T11:24:18;4.35;;;1.52;;
48161;SDS011;33950;48.154;16.316;2023-04-25T11:27:04;3.58;;;1.80;;
48161;SDS011;33950;48.154;16.316;2023-04-25T11:29:53;13.32;;;2.42;;
48161;SDS011;33950;48.154;16.316;2023-04-25T11:32:40;9.88;;;2.58;;
48161;SDS011;33950;48.154;16.316;2023-04-25T11:35:27;12.90;;;3.33;;
48161;SDS011;33950;48.154;16.316;2023-04-25T11:38:13;9.20;;;2.47;;
48161;SDS011;33950;48.154;16.316;2023-04-25T11:41:01;5.47;;;2.72;;
48161;SDS011;33950;48.154;16.316;2023-04-25T11:43:48;2.67;;;1.80;;
48161;SDS011;33950;48.154;16.316;2023-04-25T11:46:35;1.95;;;1.27;;
48161;SDS011;33950;48.154;16.316;2023-04-25T11:49:21;7.93;;;1.52;;
48161;SDS011;33950;48.154;16.316;2023-04-25T11:52:07;2.90;;;1.42;;
48161;SDS011;33950;48.154;16.316;2023-04-25T11:54:54;1.83;;;1.55;;
48161;SDS011;33950;48.154;16.316;2023-04-25T11:57:43;5.70;;;1.60;;
48161;SDS011;33950;48.154;16.316;2023-04-25T12:00:31;2.20;;;1.23;;
48161;SDS011;33950;48.154;16.316;2023-04-25T12:03:17;2.00;;;1.20;;
48161;SDS011;33950;48.154;16.316;2023-04-25T12:06:04;2.03;;;1.30;;
48161;SDS011;33950;48.154;16.316;2023-04-25T12:09:01;3.70;;;1.70;;
48161;SDS011;33950;48.154;16.316;2023-04-25T12:11:52;1.52;;;1.02;;
48161;SDS011;33950;48.154;16.316;2023-04-25T12:14:41;4.30;;;1.60;;
48161;SDS011;33950;48.154;16.316;2023-04-25T12:17:33;3.00;;;1.23;;
48161;SDS011;33950;48.154;16.316;2023-04-25T12:20:20;2.97;;;1.30;;
48161;SDS011;33950;48.154;16.316;2023-04-25T12:23:09;13.13;;;1.60;;
48161;SDS011;33950;48.154;16.316;2023-04-25T12:25:56;2.63;;;1.05;;
48161;SDS011;33950;48.154;16.316;2023-04-25T12:28:44;4.72;;;0.85;;
48161;SDS011;33950;48.154;16.316;2023-04-25T12:31:33;9.82;;;1.73;;
48161;SDS011;33950;48.154;16.316;2023-04-25T12:34:20;2.28;;;1.23;;
48161;SDS011;33950;48.154;16.316;2023-04-25T12:37:06;1.65;;;0.70;;
48161;SDS011;33950;48.154;16.316;2023-04-25T12:39:52;8.02;;;1.25;;
48161;SDS011;33950;48.154;16.316;2023-04-25T12:42:38;2.20;;;1.05;;
48161;SDS011;33950;48.154;16.316;2023-04-25T12:45:25;7.45;;;0.98;;
48161;SDS011;33950;48.154;16.316;2023-04-25T12:48:12;4.32;;;0.90;;
48161;SDS011;33950;48.154;16.316;2023-04-25T12:50:58;2.33;;;1.23;;
48161;SDS011;33950;48.154;16.316;2023-04-25T12:53:44;3.80;;;0.82;;
48161;SDS011;33950;48.154;16.316;2023-04-25T12:56:30;3.35;;;0.95;;
48161;SDS011;33950;48.154;16.316;2023-04-25T12:59:17;7.88;;;0.98;;
48161;SDS011;33950;48.154;16.316;2023-04-25T13:02:03;4.03;;;1.00;;
48161;SDS011;33950;48.154;16.316;2023-04-25T13:04:50;1.73;;;0.85;;
48161;SDS011;33950;48.154;16.316;2023-04-25T13:07:36;4.45;;;0.80;;
48161;SDS011;33950;48.154;16.316;2023-04-25T13:10:23;2.42;;;0.70;;
48161;SDS011;33950;48.154;16.316;2023-04-25T13:13:09;0.75;;;0.63;;
48161;SDS011;33950;48.154;16.316;2023-04-25T13:15:55;31.52;;;2.30;;
48161;SDS011;33950;48.154;16.316;2023-04-25T13:18:41;0.75;;;0.50;;
48161;SDS011;33950;48.154;16.316;2023-04-25T13:21:29;2.90;;;0.95;;
48161;SDS011;33950;48.154;16.316;2023-04-25T13:24:16;1.05;;;0.57;;
48161;SDS011;33950;48.154;16.316;2023-04-25T13:27:02;0.85;;;0.65;;
48161;SDS011;33950;48.154;16.316;2023-04-25T13:29:48;1.17;;;0.60;;
48161;SDS011;33950;48.154;16.316;2023-04-25T13:32:34;4.57;;;1.15;;
48161;SDS011;33950;48.154;16.316;2023-04-25T13:35:24;0.70;;;0.70;;
48161;SDS011;33950;48.154;16.316;2023-04-25T13:38:11;0.75;;;0.50;;
48161;SDS011;33950;48.154;16.316;2023-04-25T13:40:57;4.45;;;0.70;;
48161;SDS011;33950;48.154;16.316;2023-04-25T13:43:44;1.60;;;0.70;;
48161;SDS011;33950;48.154;16.316;2023-04-25T13:46:32;4.22;;;1.08;;
48161;SDS011;33950;48.154;16.316;2023-04-25T13:49:18;10.50;;;1.60;;
48161;SDS011;33950;48.154;16.316;2023-04-25T13:52:04;3.17;;;1.05;;
48161;SDS011;33950;48.154;16.316;2023-04-25T13:54:52;5.88;;;1.08;;
48161;SDS011;33950;48.154;16.316;2023-04-25T13:57:39;3.95;;;0.95;;
48161;SDS011;33950;48.154;16.316;2023-04-25T14:00:26;12.65;;;1.33;;
48161;SDS011;33950;48.154;16.316;2023-04-25T14:03:12;10.15;;;1.33;;
48161;SDS011;33950;48.154;16.316;2023-04-25T14:05:58;6.53;;;0.52;;
48161;SDS011;33950;48.154;16.316;2023-04-25T14:08:44;11.35;;;0.50;;
48161;SDS011;33950;48.154;16.316;2023-04-25T14:11:31;4.30;;;1.05;;
48161;SDS011;33950;48.154;16.316;2023-04-25T14:14:17;1.00;;;0.50;;
48161;SDS011;33950;48.154;16.316;2023-04-25T14:17:03;2.70;;;0.60;;
48161;SDS011;33950;48.154;16.316;2023-04-25T14:19:50;1.13;;;0.35;;
48161;SDS011;33950;48.154;16.316;2023-04-25T14:22:36;0.40;;;0.40;;
48161;SDS011;33950;48.154;16.316;2023-04-25T14:25:27;1.52;;;0.70;;
48161;SDS011;33950;48.154;16.316;2023-04-25T14:28:14;0.95;;;0.47;;
48161;SDS011;33950;48.154;16.316;2023-04-25T14:31:00;0.93;;;0.60;;
48161;SDS011;33950;48.154;16.316;2023-04-25T14:33:46;4.80;;;0.70;;
48161;SDS011;33950;48.154;16.316;2023-04-25T14:36:35;1.33;;;0.40;;
48161;SDS011;33950;48.154;16.316;2023-04-25T14:39:22;0.55;;;0.47;;
48161;SDS011;33950;48.154;16.316;2023-04-25T14:42:08;3.33;;;0.63;;
48161;SDS011;33950;48.154;16.316;2023-04-25T14:44:55;1.65;;;0.50;;
48161;SDS011;33950;48.154;16.316;2023-04-25T14:47:41;3.35;;;0.57;;
48161;SDS011;33950;48.154;16.316;2023-04-25T14:50:27;0.63;;;0.40;;
48161;SDS011;33950;48.154;16.316;2023-04-25T14:53:13;6.78;;;1.38;;
48161;SDS011;33950;48.154;16.316;2023-04-25T14:55:59;3.63;;;0.45;;
48161;SDS011;33950;48.154;16.316;2023-04-25T14:58:46;1.35;;;0.60;;
48161;SDS011;33950;48.154;16.316;2023-04-25T15:01:33;1.48;;;0.50;;
48161;SDS011;33950;48.154;16.316;2023-04-25T15:04:20;2.03;;;0.73;;
48161;SDS011;33950;48.154;16.316;2023-04-25T15:07:06;1.27;;;0.65;;
48161;SDS011;33950;48.154;16.316;2023-04-25T15:09:52;3.25;;;1.13;;
48161;SDS011;33950;48.154;16.316;2023-04-25T15:12:39;2.08;;;0.80;;
48161;SDS011;33950;48.154;16.316;2023-04-25T15:15:25;5.55;;;1.50;;
48161;SDS011;33950;48.154;16.316;2023-04-25T15:18:13;12.18;;;1.75;;
48161;SDS011;33950;48.154;16.316;2023-04-25T15:21:00;11.52;;;1.35;;
48161;SDS011;33950;48.154;16.316;2023-04-25T15:23:46;6.40;;;1.42;;
48161;SDS011;33950;48.154;16.316;2023-04-25T15:26:33;6.50;;;1.65;;
48161;SDS011;33950;48.154;16.316;2023-04-25T15:29:19;5.70;;;1.55;;
48161;SDS011;33950;48.154;16.316;2023-04-25T15:32:05;1.52;;;1.10;;
48161;SDS011;33950;48.154;16.316;2023-04-25T15:34:53;1.25;;;0.80;;
48161;SDS011;33950;48.154;16.316;2023-04-25T15:37:39;0.70;;;0.70;;
48161;SDS011;33950;48.154;16.316;2023-04-25T15:40:25;1.60;;;0.88;;
48161;SDS011;33950;48.154;16.316;2023-04-25T15:43:12;5.63;;;0.90;;
48161;SDS011;33950;48.154;16.316;2023-04-25T15:46:00;2.45;;;1.05;;
48161;SDS011;33950;48.154;16.316;2023-04-25T15:48:46;2.35;;;1.00;;
48161;SDS011;33950;48.154;16.316;2023-04-25T15:51:33;1.10;;;0.88;;
48161;SDS011;33950;48.154;16.316;2023-04-25T15:54:20;0.50;;;0.50;;
48161;SDS011;33950;48.154;16.316;2023-04-25T15:57:06;13.13;;;0.80;;
48161;SDS011;33950;48.154;16.316;2023-04-25T15:59:57;1.83;;;0.60;;
48161;SDS011;33950;48.154;16.316;2023-04-25T16:02:43;0.90;;;0.60;;
48161;SDS011;33950;48.154;16.316;2023-04-25T16:05:30;0.47;;;0.47;;
48161;SDS011;33950;48.154;16.316;2023-04-25T16:08:18;4.63;;;0.80;;
48161;SDS011;33950;48.154;16.316;2023-04-25T16:11:04;2.28;;;0.77;;
48161;SDS011;33950;48.154;16.316;2023-04-25T16:13:50;0.77;;;0.77;;
48161;SDS011;33950;48.154;16.316;2023-04-25T16:16:36;1.98;;;0.70;;
48161;SDS011;33950;48.154;16.316;2023-04-25T16:19:22;0.63;;;0.55;;
48161;SDS011;33950;48.154;16.316;2023-04-25T16:22:08;1.20;;;0.70;;
48161;SDS011;33950;48.154;16.316;2023-04-25T16:24:58;2.75;;;0.88;;
48161;SDS011;33950;48.154;16.316;2023-04-25T16:27:45;5.00;;;0.90;;
48161;SDS011;33950;48.154;16.316;2023-04-25T16:30:31;2.35;;;0.73;;
48161;SDS011;33950;48.154;16.316;2023-04-25T16:33:17;1.92;;;0.80;;
48161;SDS011;33950;48.154;16.316;2023-04-25T16:36:03;1.25;;;0.90;;